Portada
METAR-TAF:

METAR-TAF

Aeropuertos :

Kédougou, Senegal

latitud: 12-34N, longitud: 012-13W, altitud: 178 m

Observación

El informe se hizo hace 9 horas y 54 minutos, a las 18:00 UTC
Viento 6 kt del norte
Temperatura 33°C
Humedad 63%
Presión 1009 hPa
Visibilidad 10 km o más
Nubes dispersas a una altura de 2000 ft, Cumulus congestus.
Escasas nubes a una altura de 3000 ft, Cumulonimbus.
Nubes dispersas a una altura de 23000 ft
tormenta

METAR: GOTK 231800Z 36006KT 9999 TS SCT020TCU FEW030CB SCT230 33/25 Q1009

Hora: 03:54 (03:54 UTC)


TAF: falta

Observaciones y pronósticos meteorológicos de más de 4000 aeropuertos (mensajes METAR y TAF).

Los puntos amarillos y rojos representan las estaciones disponibles.

Ponga el ratón en el punto deseado para ver el nombre de la estación.

Haga clic para ver las observaciones y los pronósticos meteorológicos.

Para cambiar el mapa : haga clic en los botones verdes con una cruz de color negro para hacer un zoom, en el botón verde con un guión para alejar o en las flechas verdes para mapas adyacentes.


METAR-TAF: